createdAt,value
2023-01-31T00:01:33.851Z,3.53
2023-01-31T00:04:03.940Z,4.77
2023-01-31T00:06:40.167Z,4.43
2023-01-31T00:09:16.681Z,3.93
2023-01-31T00:11:45.203Z,3.97
2023-01-31T00:14:19.377Z,3.50
2023-01-31T00:19:35.050Z,3.93
2023-01-31T00:22:02.938Z,3.90
2023-01-31T00:24:30.337Z,4.87
2023-01-31T00:26:58.770Z,4.10
2023-01-31T00:29:32.794Z,3.73
2023-01-31T00:32:12.896Z,3.87
2023-01-31T00:34:56.249Z,3.43
2023-01-31T00:37:23.328Z,3.47
2023-01-31T00:45:55.696Z,7.37
2023-01-31T00:48:40.568Z,5.30
2023-01-31T00:51:10.496Z,5.30
2023-01-31T00:53:38.386Z,5.83
2023-01-31T00:56:11.719Z,5.00
2023-01-31T00:58:40.761Z,5.90
2023-01-31T01:01:11.510Z,6.27
2023-01-31T01:03:45.125Z,4.97
2023-01-31T01:06:16.731Z,6.50
2023-01-31T01:13:17.578Z,6.23
2023-01-31T01:15:45.271Z,6.83
2023-01-31T01:18:12.801Z,6.53
2023-01-31T01:20:42.739Z,5.73
2023-01-31T01:23:20.955Z,3.80
2023-01-31T01:25:48.508Z,4.97
2023-01-31T01:28:22.632Z,5.43
2023-01-31T01:36:02.570Z,7.87
2023-01-31T01:38:34.589Z,4.13
2023-01-31T01:41:19.995Z,3.80
2023-01-31T01:43:55.040Z,4.07
2023-01-31T01:46:29.258Z,4.57
2023-01-31T01:49:05.385Z,4.70
2023-01-31T01:51:36.895Z,4.00
2023-01-31T01:54:11.148Z,5.63
2023-01-31T02:12:18.211Z,4.50
2023-01-31T02:14:49.798Z,4.10
2023-01-31T02:17:19.251Z,3.70
2023-01-31T02:20:06.471Z,4.47
2023-01-31T02:22:52.738Z,6.50
2023-01-31T02:25:58.966Z,5.67
2023-01-31T02:29:24.194Z,7.13
2023-01-31T02:37:57.639Z,7.10
2023-01-31T02:40:46.639Z,5.63
2023-01-31T02:43:40.263Z,5.10
2023-01-31T02:46:16.706Z,6.33
2023-01-31T02:48:59.760Z,4.67
2023-01-31T02:51:33.610Z,4.67
2023-01-31T02:54:13.909Z,6.23
2023-01-31T02:56:45.572Z,6.43
2023-01-31T03:04:07.260Z,4.83
2023-01-31T03:07:11.387Z,7.57
2023-01-31T03:10:03.855Z,4.50
2023-01-31T03:12:48.266Z,5.40
2023-01-31T03:16:00.731Z,6.77
2023-01-31T03:18:44.500Z,4.30
2023-01-31T03:21:18.489Z,4.30
2023-01-31T03:26:53.037Z,5.73
2023-01-31T03:29:31.483Z,4.67
2023-01-31T03:32:13.881Z,4.83
2023-01-31T03:34:48.803Z,5.27
2023-01-31T03:37:24.019Z,4.90
2023-01-31T03:40:01.682Z,4.97
2023-01-31T03:42:40.512Z,5.33
2023-01-31T03:45:12.570Z,5.57
2023-01-31T03:53:06.898Z,4.27
2023-01-31T03:55:43.252Z,4.80
2023-01-31T03:58:24.908Z,4.60
2023-01-31T04:00:55.162Z,5.10
2023-01-31T04:03:32.412Z,4.53
2023-01-31T04:06:03.328Z,4.40
2023-01-31T04:08:47.936Z,5.70
2023-01-31T04:13:59.698Z,4.30
2023-01-31T04:16:33.617Z,5.53
2023-01-31T04:19:01.590Z,4.73
2023-01-31T04:21:47.856Z,5.50
2023-01-31T04:24:15.513Z,5.20
2023-01-31T04:26:45.124Z,4.83
2023-01-31T04:29:13.855Z,4.10
2023-01-31T04:31:41.449Z,4.93
2023-01-31T04:49:50.598Z,4.13
2023-01-31T04:52:17.904Z,5.03
2023-01-31T04:54:59.427Z,3.70
2023-01-31T04:57:35.249Z,3.53
2023-01-31T05:00:03.233Z,4.00
2023-01-31T05:02:54.798Z,3.10
2023-01-31T05:05:23.283Z,3.40
2023-01-31T05:11:35.347Z,4.70
2023-01-31T05:14:08.620Z,3.90
2023-01-31T05:17:03.203Z,3.90
2023-01-31T05:19:31.463Z,3.60
2023-01-31T05:22:00.167Z,3.40
2023-01-31T05:25:07.292Z,3.30
2023-01-31T05:27:39.300Z,3.37
2023-01-31T05:30:13.672Z,3.13
2023-01-31T05:32:41.000Z,3.50
2023-01-31T05:38:28.706Z,3.23
2023-01-31T05:41:05.863Z,3.90
2023-01-31T05:43:44.802Z,3.70
2023-01-31T05:46:23.154Z,4.23
2023-01-31T05:48:50.449Z,3.40
2023-01-31T05:51:17.852Z,3.23
2023-01-31T05:53:51.909Z,2.40
2023-01-31T05:56:34.993Z,2.63
2023-01-31T05:59:03.133Z,3.37
2023-01-31T06:05:51.811Z,3.00
2023-01-31T06:08:22.734Z,6.00
2023-01-31T06:10:49.833Z,3.37
2023-01-31T06:13:17.812Z,2.30
2023-01-31T06:15:51.808Z,3.60
2023-01-31T06:18:19.300Z,3.07
2023-01-31T06:20:51.023Z,3.73
2023-01-31T06:23:21.301Z,5.27
2023-01-31T06:25:52.264Z,3.30
2023-01-31T06:36:03.093Z,7.03
2023-01-31T06:38:30.874Z,3.83
2023-01-31T06:41:04.280Z,5.17
2023-01-31T06:43:33.954Z,4.40
2023-01-31T06:46:04.868Z,3.30
2023-01-31T06:48:35.990Z,4.07
2023-01-31T06:51:13.626Z,5.50
2023-01-31T06:58:57.934Z,5.30
2023-01-31T07:01:27.791Z,5.10
2023-01-31T07:04:01.150Z,5.23
2023-01-31T07:06:28.728Z,5.63
2023-01-31T07:08:56.251Z,6.27
2023-01-31T07:11:26.741Z,5.93
2023-01-31T07:13:55.526Z,5.50
2023-01-31T07:19:07.349Z,5.60
2023-01-31T07:21:36.142Z,5.60
2023-01-31T07:24:04.046Z,5.13
2023-01-31T07:26:32.515Z,7.00
2023-01-31T07:29:01.111Z,6.43
2023-01-31T07:31:30.112Z,4.23
2023-01-31T07:33:59.283Z,6.03
2023-01-31T07:36:28.594Z,6.07
2023-01-31T07:43:56.585Z,7.27
2023-01-31T07:46:23.695Z,9.23
2023-01-31T07:48:51.303Z,7.37
2023-01-31T07:51:21.085Z,5.13
2023-01-31T07:53:49.080Z,4.60
2023-01-31T07:56:18.393Z,6.50
2023-01-31T07:58:49.719Z,5.90
2023-01-31T08:01:50.647Z,6.93
2023-01-31T08:09:36.043Z,5.40
2023-01-31T08:12:04.770Z,5.27
2023-01-31T08:14:37.554Z,6.53
2023-01-31T08:17:07.820Z,4.90
2023-01-31T08:19:39.002Z,5.50
2023-01-31T08:22:10.082Z,5.43
2023-01-31T08:24:43.134Z,5.20
2023-01-31T08:32:20.906Z,4.80
2023-01-31T08:35:02.043Z,6.10
2023-01-31T08:37:36.374Z,5.03
2023-01-31T08:40:11.994Z,4.70
2023-01-31T08:42:53.541Z,5.87
2023-01-31T08:45:24.290Z,4.93
2023-01-31T08:47:55.910Z,5.70
2023-01-31T08:50:27.943Z,6.53
2023-01-31T08:58:05.446Z,5.07
2023-01-31T09:00:33.710Z,6.27
2023-01-31T09:03:04.333Z,4.87
2023-01-31T09:05:33.727Z,3.53
2023-01-31T09:08:00.774Z,4.30
2023-01-31T09:10:28.763Z,4.47
2023-01-31T09:12:59.598Z,4.73
2023-01-31T09:20:35.500Z,4.23
2023-01-31T09:25:48.144Z,3.57
2023-01-31T09:28:22.252Z,5.53
2023-01-31T09:30:53.744Z,3.53
2023-01-31T09:33:21.981Z,4.50
2023-01-31T09:36:04.707Z,3.80
2023-01-31T09:43:04.670Z,3.87
2023-01-31T09:45:34.400Z,3.87
2023-01-31T09:48:05.648Z,4.90
2023-01-31T09:50:40.732Z,3.70
2023-01-31T09:53:21.184Z,4.83
2023-01-31T09:55:57.125Z,3.60
2023-01-31T09:58:36.993Z,4.23
2023-01-31T10:05:58.641Z,3.97
2023-01-31T10:08:40.862Z,3.80
2023-01-31T10:11:16.026Z,3.87
2023-01-31T10:13:49.804Z,6.57
2023-01-31T10:16:30.802Z,4.77
2023-01-31T10:19:05.651Z,5.03
2023-01-31T10:21:40.496Z,4.17
2023-01-31T10:30:08.247Z,4.27
2023-01-31T10:32:43.704Z,4.33
2023-01-31T10:35:31.674Z,5.60
2023-01-31T10:38:06.654Z,5.47
2023-01-31T10:40:39.444Z,5.47
2023-01-31T10:43:17.013Z,5.33
2023-01-31T10:45:45.819Z,5.20
2023-01-31T10:48:18.576Z,6.03
2023-01-31T10:55:15.325Z,4.70
2023-01-31T10:57:43.479Z,5.90
2023-01-31T11:00:19.820Z,5.00
2023-01-31T11:02:48.741Z,5.37
2023-01-31T11:05:19.124Z,4.77
2023-01-31T11:07:51.933Z,5.73
2023-01-31T11:10:25.963Z,4.33
2023-01-31T11:18:02.937Z,6.37
2023-01-31T11:20:35.595Z,4.97
2023-01-31T11:23:07.300Z,4.73
2023-01-31T11:25:35.621Z,6.50
2023-01-31T11:28:19.447Z,5.57
2023-01-31T11:30:52.311Z,5.10
2023-01-31T11:33:48.595Z,6.50
2023-01-31T11:41:51.319Z,5.93
2023-01-31T11:44:34.820Z,5.53
2023-01-31T11:47:13.188Z,4.23
2023-01-31T11:49:51.188Z,5.67
2023-01-31T11:52:36.407Z,5.70
2023-01-31T11:55:15.053Z,5.47
2023-01-31T11:57:46.115Z,5.13
2023-01-31T12:00:37.824Z,5.60
2023-01-31T12:03:10.143Z,4.30
2023-01-31T12:11:12.204Z,5.63
2023-01-31T12:13:53.047Z,4.87
2023-01-31T12:16:26.742Z,5.20
2023-01-31T12:19:11.282Z,4.47
2023-01-31T12:21:56.432Z,4.83
2023-01-31T12:24:44.514Z,4.80
2023-01-31T12:27:34.395Z,4.30
2023-01-31T12:33:23.138Z,5.00
2023-01-31T12:36:10.279Z,4.57
2023-01-31T12:39:03.581Z,4.20
2023-01-31T12:41:38.708Z,4.33
2023-01-31T12:44:43.015Z,5.10
2023-01-31T12:47:28.710Z,5.23
2023-01-31T12:50:13.743Z,4.57
2023-01-31T12:55:53.333Z,4.00
2023-01-31T12:58:42.350Z,4.13
2023-01-31T13:01:14.933Z,4.47
2023-01-31T13:04:02.234Z,4.37
2023-01-31T13:06:34.966Z,4.93
2023-01-31T13:09:37.377Z,4.03
2023-01-31T13:12:24.554Z,4.03
2023-01-31T13:20:28.524Z,4.47
2023-01-31T13:23:03.404Z,4.50
2023-01-31T13:25:45.933Z,5.03
2023-01-31T13:28:23.761Z,3.93
2023-01-31T13:31:02.716Z,4.33
2023-01-31T13:33:37.313Z,5.00
2023-01-31T13:36:17.665Z,4.80
2023-01-31T13:38:46.954Z,4.03
2023-01-31T13:46:32.218Z,4.37
2023-01-31T13:49:09.494Z,5.13
2023-01-31T13:51:47.637Z,4.40
2023-01-31T13:54:22.781Z,4.90
2023-01-31T13:56:53.731Z,4.50
2023-01-31T13:59:27.305Z,5.57
2023-01-31T14:02:01.332Z,5.63
2023-01-31T14:04:39.800Z,4.47
2023-01-31T14:12:49.684Z,4.57
2023-01-31T14:15:56.250Z,5.17
2023-01-31T14:18:45.207Z,5.23
2023-01-31T14:21:58.601Z,5.40
2023-01-31T14:25:10.550Z,5.90
2023-01-31T14:28:09.322Z,5.80
2023-01-31T14:30:47.732Z,6.47
2023-01-31T14:38:45.224Z,7.57
2023-01-31T14:41:21.975Z,7.13
2023-01-31T14:44:14.921Z,6.63
2023-01-31T14:47:08.662Z,6.10
2023-01-31T14:50:29.956Z,6.87
2023-01-31T14:53:23.703Z,5.37
2023-01-31T14:59:00.992Z,6.10
2023-01-31T15:01:35.083Z,5.23
2023-01-31T15:04:08.044Z,5.13
2023-01-31T15:06:43.500Z,5.27
2023-01-31T15:09:39.164Z,4.57
2023-01-31T15:12:44.961Z,5.70
2023-01-31T15:15:28.517Z,5.50
2023-01-31T15:21:01.747Z,5.13
2023-01-31T15:23:40.970Z,5.93
2023-01-31T15:26:19.422Z,5.73
2023-01-31T15:28:53.339Z,5.10
2023-01-31T15:31:47.613Z,6.80
2023-01-31T15:34:39.024Z,5.17
2023-01-31T15:37:24.971Z,6.13
2023-01-31T15:44:48.210Z,5.20
2023-01-31T15:47:31.155Z,5.80
2023-01-31T15:52:51.503Z,4.90
2023-01-31T15:55:22.852Z,5.27
2023-01-31T15:57:56.796Z,5.07
2023-01-31T16:00:32.775Z,4.90
2023-01-31T16:03:01.736Z,3.60
2023-01-31T16:05:34.945Z,4.83
2023-01-31T16:11:00.595Z,4.87
2023-01-31T16:13:39.179Z,5.40
2023-01-31T16:16:20.394Z,4.17
2023-01-31T16:18:53.312Z,4.60
2023-01-31T16:21:45.261Z,5.37
2023-01-31T16:24:19.317Z,4.77
2023-01-31T16:26:59.373Z,4.57
2023-01-31T16:29:59.371Z,4.53
2023-01-31T16:38:20.025Z,4.53
2023-01-31T16:41:02.577Z,4.80
2023-01-31T16:43:42.477Z,5.67
2023-01-31T16:46:42.392Z,4.20
2023-01-31T16:49:37.339Z,4.83
2023-01-31T16:52:25.705Z,5.27
2023-01-31T16:55:02.887Z,5.60
2023-01-31T16:57:46.091Z,4.03
2023-01-31T17:00:39.102Z,5.73
2023-01-31T17:06:03.259Z,5.90
2023-01-31T17:08:47.702Z,5.70
2023-01-31T17:11:43.049Z,5.77
2023-01-31T17:14:13.791Z,5.90
2023-01-31T17:17:16.276Z,6.27
2023-01-31T17:19:57.338Z,5.40
2023-01-31T17:22:33.291Z,5.53
2023-01-31T17:28:16.391Z,6.23
2023-01-31T17:33:44.616Z,5.97
2023-01-31T17:36:32.363Z,6.60
2023-01-31T17:39:09.665Z,4.77
2023-01-31T17:41:48.061Z,6.33
2023-01-31T17:44:49.569Z,4.07
2023-01-31T17:47:26.344Z,5.23
2023-01-31T17:49:56.874Z,5.23
2023-01-31T18:08:26.180Z,3.77
2023-01-31T18:11:23.321Z,3.63
2023-01-31T18:14:02.992Z,4.30
2023-01-31T18:16:37.054Z,5.07
2023-01-31T18:19:05.568Z,5.23
2023-01-31T18:21:53.540Z,4.43
2023-01-31T18:24:31.555Z,5.13
2023-01-31T18:27:00.642Z,5.27
2023-01-31T18:29:35.785Z,5.70
2023-01-31T18:32:36.564Z,4.70
2023-01-31T18:42:06.222Z,4.73
2023-01-31T18:44:44.530Z,5.40
2023-01-31T18:47:46.064Z,4.83
2023-01-31T18:51:14.653Z,5.40
2023-01-31T18:53:46.723Z,6.30
2023-01-31T18:56:35.523Z,7.13
2023-01-31T18:59:26.534Z,6.17
2023-01-31T19:02:07.076Z,5.93
2023-01-31T19:04:49.219Z,6.83
2023-01-31T19:07:27.073Z,6.63
2023-01-31T19:13:24.568Z,6.50
2023-01-31T19:16:04.361Z,9.10
2023-01-31T19:18:42.506Z,7.07
2023-01-31T19:21:27.970Z,7.27
2023-01-31T19:24:01.645Z,7.40
2023-01-31T19:26:46.172Z,7.20
2023-01-31T19:29:24.576Z,7.87
2023-01-31T19:32:06.163Z,6.80
2023-01-31T19:34:36.882Z,8.67
2023-01-31T19:44:46.904Z,8.20
2023-01-31T19:47:31.765Z,8.43
2023-01-31T19:49:59.264Z,9.43
2023-01-31T19:52:41.062Z,7.87
2023-01-31T19:55:12.879Z,8.70
2023-01-31T19:58:11.683Z,8.50
2023-01-31T20:01:05.424Z,8.13
2023-01-31T20:08:33.778Z,7.63
2023-01-31T20:11:15.906Z,8.13
2023-01-31T20:14:05.962Z,8.57
2023-01-31T20:16:40.309Z,7.97
2023-01-31T20:19:11.223Z,8.23
2023-01-31T20:21:42.427Z,7.93
2023-01-31T20:24:23.994Z,7.07
2023-01-31T20:27:00.191Z,7.33
2023-01-31T20:34:54.123Z,8.17
2023-01-31T20:37:22.795Z,6.93
2023-01-31T20:39:53.506Z,6.63
2023-01-31T20:42:35.113Z,6.20
2023-01-31T20:45:18.074Z,5.30
2023-01-31T20:47:48.357Z,5.20
2023-01-31T20:50:19.917Z,5.53
2023-01-31T20:52:48.213Z,5.87
2023-01-31T21:02:30.493Z,6.30
2023-01-31T21:05:08.088Z,6.80
2023-01-31T21:07:38.300Z,6.70
2023-01-31T21:10:11.124Z,6.03
2023-01-31T21:12:44.479Z,8.07
2023-01-31T21:15:14.831Z,6.60
2023-01-31T21:17:50.030Z,6.47
2023-01-31T21:23:00.241Z,6.43
2023-01-31T21:25:30.923Z,7.07
2023-01-31T21:28:04.903Z,6.40
2023-01-31T21:30:38.334Z,7.53
2023-01-31T21:33:17.785Z,7.40
2023-01-31T21:35:47.603Z,7.70
2023-01-31T21:38:23.125Z,7.80
2023-01-31T21:41:11.574Z,7.53
2023-01-31T21:46:44.944Z,7.30
2023-01-31T21:49:14.200Z,7.17
2023-01-31T21:51:44.709Z,6.40
2023-01-31T21:54:25.329Z,6.63
2023-01-31T21:56:53.417Z,6.73
2023-01-31T21:59:27.491Z,6.30
2023-01-31T22:01:59.498Z,5.97
2023-01-31T22:07:16.320Z,5.67
2023-01-31T22:09:47.133Z,4.87
2023-01-31T22:12:19.746Z,5.93
2023-01-31T22:14:50.199Z,5.20
2023-01-31T22:17:24.405Z,6.00
2023-01-31T22:19:56.671Z,4.70
2023-01-31T22:22:25.427Z,6.30
2023-01-31T22:30:14.080Z,6.27
2023-01-31T22:32:43.583Z,6.00
2023-01-31T22:35:12.108Z,6.47
2023-01-31T22:37:48.351Z,5.13
2023-01-31T22:40:19.401Z,5.87
2023-01-31T22:42:48.181Z,6.03
2023-01-31T22:45:16.791Z,5.87
2023-01-31T22:50:47.516Z,5.97
2023-01-31T22:53:14.933Z,5.87
2023-01-31T22:55:42.974Z,6.13
2023-01-31T22:58:19.363Z,7.27
2023-01-31T23:00:47.848Z,5.93
2023-01-31T23:03:15.377Z,5.60
2023-01-31T23:05:54.193Z,5.83
2023-01-31T23:08:30.831Z,5.60
2023-01-31T23:15:53.627Z,7.10
2023-01-31T23:18:31.083Z,7.57
2023-01-31T23:21:06.188Z,8.47
2023-01-31T23:23:34.388Z,8.03
2023-01-31T23:26:02.279Z,8.33
2023-01-31T23:28:29.852Z,9.77
2023-01-31T23:31:02.043Z,9.63
2023-01-31T23:33:29.983Z,10.60
2023-01-31T23:42:54.261Z,9.93
2023-01-31T23:45:22.235Z,11.37
2023-01-31T23:47:49.813Z,11.37
2023-01-31T23:50:21.127Z,10.60
2023-01-31T23:53:04.577Z,10.47
2023-01-31T23:55:32.610Z,11.73
2023-01-31T23:58:00.774Z,11.23
